Summit, South Carolina
Current Conditions -  °F | °C
As of 6:56 PM on Friday 24 Oct 2014 (Local Time) from KCAE Reporting Station
Broken Clouds Broken Clouds  
Wind Chill: 65°   Ceiling: 15000
Heat Index: 65°   Visibility: 10mi
Dew Point: 49°   Wind: 3mph
Humidity: 56%   Direction: 360°N
Pressure: 29.98"   Gusts: NA
Location:  33.8822°N, 81.433°W
Report Text: KCAE 242256Z 36003KT 10SM BKN150 18/09 A2998 RMK AO2 SLP151 T01830094
Loading
Personal Weather Stations






























Interactive Weather Map
Tropical Storm Tracking
New forecast layout! Learn more

10-Day Weather Forecast

Advertisements
Track Severe Weather on mobile